Time;durP1;ratioP1;P1;durP2;ratioP2;P2;SDS_P1;SDS_P2;PMS_P1;PMS_P2;Temp;Humidity;BMP_temperature;BMP_pressure;BME280_temperature;BME280_humidity;BME280_pressure;Samples;Min_cycle;Max_cycle;Signal;HPM_P1;HPM_P2
2023/07/17 00:00:11;;;;;;;5.63;3.13;;;;;;;17.03;100.00;100645.97;4944219;28;20027;-73
2023/07/17 00:02:37;;;;;;;5.05;3.50;;;;;;;17.02;100.00;100650.53;4924748;28;20030;-73
2023/07/17 00:05:04;;;;;;;9.13;3.40;;;;;;;16.98;100.00;100640.38;4941890;29;20049;-73
2023/07/17 00:07:29;;;;;;;7.28;3.40;;;;;;;16.91;100.00;100629.59;4926101;28;20023;-73
2023/07/17 00:09:55;;;;;;;7.35;3.38;;;;;;;16.93;100.00;100641.00;4941712;28;20036;-73
2023/07/17 00:12:21;;;;;;;13.67;3.43;;;;;;;17.00;100.00;100681.44;4942039;28;20029;-73
2023/07/17 00:14:47;;;;;;;6.28;2.88;;;;;;;17.04;100.00;100688.94;4939880;28;20860;-72
2023/07/17 00:17:13;;;;;;;10.68;4.55;;;;;;;17.05;100.00;100697.84;4945862;28;20043;-73
2023/07/17 00:19:39;;;;;;;11.60;3.50;;;;;;;17.04;100.00;100720.44;4941558;28;20027;-73
2023/07/17 00:22:06;;;;;;;5.57;3.20;;;;;;;16.95;100.00;100708.19;4941429;29;20448;-73
2023/07/17 00:24:31;;;;;;;8.20;3.67;;;;;;;17.00;100.00;100724.59;4942633;28;20035;-73
2023/07/17 00:26:56;;;;;;;5.60;3.40;;;;;;;16.97;100.00;100728.50;4941855;29;20038;-73
2023/07/17 00:29:28;;;;;;;6.57;3.70;;;;;;;16.92;100.00;100722.91;4928385;28;20027;-73
2023/07/17 00:31:54;;;;;;;8.60;3.63;;;;;;;16.88;100.00;100738.69;4955907;28;20130;-73
2023/07/17 00:34:20;;;;;;;7.80;3.55;;;;;;;16.93;100.00;100735.38;4945014;28;20102;-73
2023/07/17 00:36:47;;;;;;;7.95;3.85;;;;;;;16.92;100.00;100727.47;4939405;28;20043;-73
2023/07/17 00:39:18;;;;;;;4.53;3.30;;;;;;;16.84;100.00;100732.03;4941989;28;20372;-73
2023/07/17 00:41:45;;;;;;;5.63;3.10;;;;;;;16.83;100.00;100754.66;4939031;28;20090;-73
2023/07/17 00:44:10;;;;;;;12.43;3.83;;;;;;;16.83;100.00;100746.56;4941362;28;20023;-73
2023/07/17 00:46:36;;;;;;;5.50;3.10;;;;;;;16.81;100.00;100745.94;4942021;28;20483;-73
2023/07/17 00:49:05;;;;;;;7.97;3.30;;;;;;;16.82;100.00;100746.75;4941416;28;20386;-73
2023/07/17 00:51:32;;;;;;;10.57;3.95;;;;;;;16.72;100.00;100757.91;4942000;28;20031;-73
2023/07/17 00:54:00;;;;;;;7.45;3.47;;;;;;;16.70;100.00;100759.13;4943590;29;20079;-73
2023/07/17 00:56:29;;;;;;;7.78;4.22;;;;;;;16.57;100.00;100765.28;4941518;28;20111;-72
2023/07/17 00:58:56;;;;;;;8.32;3.72;;;;;;;16.51;100.00;100780.41;4939909;28;20087;-73
2023/07/17 01:01:21;;;;;;;8.18;4.10;;;;;;;16.47;100.00;100779.16;4941758;28;20111;-73
2023/07/17 01:03:50;;;;;;;6.30;3.70;;;;;;;16.46;100.00;100775.63;4938721;28;20111;-73
2023/07/17 01:06:18;;;;;;;6.75;3.47;;;;;;;16.40;100.00;100770.19;4941238;28;20047;-73
2023/07/17 01:08:43;;;;;;;5.30;3.50;;;;;;;16.36;100.00;100769.75;4933533;29;20027;-73
2023/07/17 01:11:09;;;;;;;7.33;4.13;;;;;;;16.34;100.00;100779.06;4937829;28;20042;-73
2023/07/17 01:13:55;;;;;;;10.20;4.53;;;;;;;16.29;100.00;100776.97;4937805;29;20114;-73
2023/07/17 01:16:20;;;;;;;9.90;4.32;;;;;;;16.24;100.00;100787.53;4933274;29;20054;-73
2023/07/17 01:18:46;;;;;;;9.97;3.60;;;;;;;16.15;100.00;100788.72;4938482;28;20507;-73
2023/07/17 01:21:13;;;;;;;7.05;3.55;;;;;;;16.02;100.00;100803.75;4941410;28;20031;-72
2023/07/17 01:23:38;;;;;;;6.95;3.65;;;;;;;15.97;100.00;100817.00;4939105;28;20039;-73
2023/07/17 01:26:15;;;;;;;6.85;3.70;;;;;;;15.86;100.00;100840.94;4941696;28;20059;-73
2023/07/17 01:28:41;;;;;;;7.25;3.70;;;;;;;15.82;100.00;100832.38;4923295;29;20435;-73
2023/07/17 01:31:07;;;;;;;10.48;4.28;;;;;;;15.78;100.00;100841.88;4938659;29;20027;-73
2023/07/17 01:33:34;;;;;;;8.07;4.93;;;;;;;15.69;100.00;100856.50;4937269;29;20472;-73
2023/07/17 01:36:00;;;;;;;6.43;3.60;;;;;;;15.63;100.00;100861.59;4921430;28;20030;-73
2023/07/17 01:38:26;;;;;;;7.50;4.57;;;;;;;15.58;100.00;100866.72;4941411;29;20510;-73
2023/07/17 01:40:52;;;;;;;9.18;4.30;;;;;;;15.56;100.00;100866.09;4938939;29;20032;-73
2023/07/17 01:43:18;;;;;;;11.18;4.65;;;;;;;15.58;100.00;100873.97;4940488;28;20042;-73
2023/07/17 01:45:43;;;;;;;8.85;4.20;;;;;;;15.60;100.00;100878.13;4937628;28;20429;-73
2023/07/17 01:48:10;;;;;;;5.93;4.63;;;;;;;15.57;100.00;100889.28;4942331;28;20231;-73
2023/07/17 01:50:35;;;;;;;8.83;4.17;;;;;;;15.49;100.00;100869.75;4918391;28;20369;-73
2023/07/17 01:53:02;;;;;;;10.93;5.40;;;;;;;15.46;100.00;100870.97;4934044;29;20105;-73
2023/07/17 01:55:27;;;;;;;8.53;5.30;;;;;;;15.45;100.00;100874.66;4941853;28;20023;-73
2023/07/17 01:57:58;;;;;;;9.95;4.90;;;;;;;15.47;100.00;100869.94;4943520;28;20404;-73
2023/07/17 02:00:24;;;;;;;7.20;5.35;;;;;;;15.46;100.00;100862.91;4940688;28;20089;-73
2023/07/17 02:02:49;;;;;;;13.87;4.93;;;;;;;15.46;100.00;100857.50;4954081;28;20028;-73
2023/07/17 02:05:15;;;;;;;8.97;4.43;;;;;;;15.49;100.00;100881.34;4941029;29;20059;-73
2023/07/17 02:07:40;;;;;;;7.53;4.17;;;;;;;15.49;100.00;100875.13;4933209;28;20476;-73
2023/07/17 02:10:07;;;;;;;13.53;5.07;;;;;;;15.50;100.00;100850.72;4941593;29;20062;-73
2023/07/17 02:12:33;;;;;;;10.32;4.63;;;;;;;15.52;100.00;100835.22;4939592;28;20058;-73
2023/07/17 02:14:59;;;;;;;9.75;4.85;;;;;;;15.60;100.00;100840.47;4934074;29;20489;-73
2023/07/17 02:17:24;;;;;;;8.80;4.97;;;;;;;15.68;100.00;100844.03;4940895;28;20031;-73
2023/07/17 02:19:49;;;;;;;8.10;4.07;;;;;;;15.71;100.00;100833.78;4922550;29;20438;-73
2023/07/17 02:22:15;;;;;;;9.67;5.13;;;;;;;15.72;100.00;100808.50;4940452;28;20114;-73
2023/07/17 02:24:40;;;;;;;9.90;4.93;;;;;;;15.66;100.00;100811.09;4938600;28;20154;-73
2023/07/17 02:27:06;;;;;;;10.77;4.60;;;;;;;15.70;100.00;100812.38;4940528;29;20408;-73
2023/07/17 02:29:31;;;;;;;13.07;6.10;;;;;;;15.70;100.00;100817.78;4941229;28;20062;-73
2023/07/17 02:31:56;;;;;;;10.30;5.27;;;;;;;15.75;100.00;100802.72;4940306;29;20035;-73
2023/07/17 02:34:24;;;;;;;9.88;4.32;;;;;;;15.82;100.00;100789.31;4940469;28;20031;-73
2023/07/17 02:36:49;;;;;;;7.70;4.85;;;;;;;15.87;100.00;100786.03;4939586;28;20376;-73
2023/07/17 02:39:14;;;;;;;9.87;4.97;;;;;;;15.92;100.00;100792.53;4935808;29;20050;-73
2023/07/17 02:41:40;;;;;;;6.93;3.80;;;;;;;15.97;100.00;100787.38;4938360;28;20027;-73
2023/07/17 02:44:06;;;;;;;8.38;4.75;;;;;;;15.98;100.00;100793.56;4934186;28;20088;-73
2023/07/17 02:46:33;;;;;;;10.32;4.72;;;;;;;15.97;100.00;100765.00;4955601;28;20357;-73
2023/07/17 02:48:59;;;;;;;8.07;4.43;;;;;;;15.98;100.00;100778.25;4939343;29;20112;-73
2023/07/17 02:51:24;;;;;;;7.87;4.70;;;;;;;16.00;100.00;100772.69;4940389;28;20027;-73
2023/07/17 02:53:49;;;;;;;11.50;4.87;;;;;;;16.01;100.00;100766.25;4921728;28;20040;-73
2023/07/17 02:56:15;;;;;;;10.80;5.47;;;;;;;16.02;100.00;100782.22;4940510;28;20118;-73
2023/07/17 02:58:42;;;;;;;8.47;4.83;;;;;;;16.07;100.00;100831.97;4941481;28;20520;-73
2023/07/17 03:01:09;;;;;;;12.07;4.97;;;;;;;16.00;100.00;100856.16;4943602;28;20429;-73
2023/07/17 03:03:34;;;;;;;10.70;5.15;;;;;;;15.99;100.00;100865.25;4926136;28;20036;-73
2023/07/17 03:06:00;;;;;;;9.13;4.50;;;;;;;15.93;100.00;100888.41;4942600;28;20032;-72
2023/07/17 03:08:25;;;;;;;12.67;5.43;;;;;;;15.76;100.00;100905.88;4943598;28;20344;-72
2023/07/17 03:10:51;;;;;;;7.87;4.63;;;;;;;15.71;100.00;100927.13;4941299;29;20315;-73
2023/07/17 03:13:17;;;;;;;11.80;5.60;;;;;;;15.67;100.00;100936.59;4961009;28;20039;-72
2023/07/17 03:15:42;;;;;;;11.18;5.05;;;;;;;15.60;100.00;100936.53;4941240;28;20042;-72
2023/07/17 03:18:07;;;;;;;10.87;5.90;;;;;;;15.73;100.00;100957.38;4943348;29;20477;-72
2023/07/17 03:20:34;;;;;;;19.97;5.90;;;;;;;15.72;100.00;100966.47;4942537;28;20058;-72
2023/07/17 03:22:59;;;;;;;8.50;4.80;;;;;;;15.58;100.00;100950.16;4941691;29;20120;-73
2023/07/17 03:25:25;;;;;;;11.90;4.90;;;;;;;15.65;100.00;100965.53;4917225;28;20020;-72
2023/07/17 03:27:50;;;;;;;11.17;5.17;;;;;;;15.59;100.00;100943.75;4933091;29;20118;-72
2023/07/17 03:30:16;;;;;;;11.02;5.28;;;;;;;15.59;100.00;100938.38;4937455;28;20035;-73
2023/07/17 03:32:41;;;;;;;8.73;5.93;;;;;;;15.60;100.00;100934.66;4940156;28;20035;-72
2023/07/17 03:35:07;;;;;;;7.27;4.00;;;;;;;15.66;100.00;100940.28;4937192;29;20023;-73
2023/07/17 03:37:32;;;;;;;8.77;4.90;;;;;;;15.57;100.00;100943.13;4958047;28;20058;-72
2023/07/17 03:39:58;;;;;;;7.37;5.83;;;;;;;15.49;100.00;100932.44;4942048;28;20122;-72
2023/07/17 03:42:24;;;;;;;8.60;5.18;;;;;;;15.53;100.00;100936.44;4940628;28;20039;-72
2023/07/17 03:44:49;;;;;;;11.80;5.53;;;;;;;15.46;100.00;100940.09;4940822;29;20492;-72
2023/07/17 03:47:16;;;;;;;10.23;4.55;;;;;;;15.43;100.00;100918.94;4937681;28;20070;-73
2023/07/17 03:49:41;;;;;;;10.30;4.95;;;;;;;15.43;100.00;100919.78;4940955;28;20484;-72
2023/07/17 03:52:07;;;;;;;9.67;4.70;;;;;;;15.46;100.00;100913.19;4942179;28;20031;-75
2023/07/17 03:54:32;;;;;;;8.35;4.90;;;;;;;15.49;100.00;100902.03;4925525;28;20358;-73
2023/07/17 03:56:58;;;;;;;8.02;4.88;;;;;;;15.29;100.00;100907.19;4928731;29;20114;-72
2023/07/17 03:59:24;;;;;;;12.70;5.97;;;;;;;15.29;100.00;100924.19;4940446;28;20022;-72
2023/07/17 04:01:50;;;;;;;9.10;4.68;;;;;;;15.28;100.00;100918.97;4934936;29;20083;-72
2023/07/17 04:04:16;;;;;;;7.53;4.63;;;;;;;15.45;100.00;100917.72;4916087;28;20511;-73
2023/07/17 04:06:41;;;;;;;10.67;4.63;;;;;;;15.50;100.00;100901.84;4934115;29;20520;-72
2023/07/17 04:09:07;;;;;;;8.27;4.70;;;;;;;15.56;100.00;100893.00;4935673;29;20480;-72
2023/07/17 04:11:33;;;;;;;12.00;5.17;;;;;;;15.57;100.00;100896.53;4940778;28;20511;-72
2023/07/17 04:13:58;;;;;;;11.75;5.45;;;;;;;15.60;100.00;100882.69;4949966;28;20391;-72
2023/07/17 04:16:27;;;;;;;11.75;4.97;;;;;;;15.63;100.00;100876.91;4942461;28;20377;-72
2023/07/17 04:18:54;;;;;;;10.80;4.63;;;;;;;15.67;100.00;100872.00;4938832;28;20042;-72
2023/07/17 04:21:20;;;;;;;9.50;4.83;;;;;;;15.66;100.00;100868.44;4937995;28;20035;-72
2023/07/17 04:23:50;;;;;;;11.35;4.72;;;;;;;15.71;100.00;100867.91;4923783;28;20526;-72
2023/07/17 04:26:18;;;;;;;8.80;5.47;;;;;;;15.71;100.00;100846.38;4926288;28;20027;-72
2023/07/17 04:28:43;;;;;;;9.57;4.97;;;;;;;15.77;100.00;100840.22;4939974;28;20058;-72
2023/07/17 04:31:09;;;;;;;9.35;4.10;;;;;;;15.86;100.00;100814.84;4946925;28;20275;-75
2023/07/17 04:33:34;;;;;;;10.57;5.30;;;;;;;15.85;100.00;100823.94;4946475;28;20564;-75
2023/07/17 04:36:05;;;;;;;11.55;4.25;;;;;;;15.93;100.00;100828.34;4944769;29;20046;-73
2023/07/17 04:38:30;;;;;;;8.57;4.72;;;;;;;15.94;100.00;100830.81;4946976;28;20676;-73
2023/07/17 04:40:56;;;;;;;6.63;3.75;;;;;;;15.94;100.00;100813.84;4928943;28;20122;-73
2023/07/17 04:43:22;;;;;;;8.43;5.17;;;;;;;15.95;100.00;100794.81;4925466;28;20066;-72
2023/07/17 04:45:48;;;;;;;;;;;;;;;16.07;100.00;100810.44;4940180;28;20504;-72
2023/07/17 04:48:18;;;;;;;9.25;5.05;;;;;;;16.08;100.00;100823.69;4942104;28;19957;-73
2023/07/17 04:50:45;;;;;;;7.47;3.80;;;;;;;16.04;100.00;100809.78;4939576;28;20125;-72
2023/07/17 04:53:10;;;;;;;8.77;4.50;;;;;;;16.02;100.00;100817.22;4925580;28;20027;-73
2023/07/17 04:55:36;;;;;;;5.53;3.87;;;;;;;16.08;100.00;100814.78;4941848;28;20124;-73
2023/07/17 04:58:01;;;;;;;7.97;4.73;;;;;;;16.08;100.00;100810.22;4946670;28;20329;-72
2023/07/17 05:00:28;;;;;;;10.23;4.75;;;;;;;16.01;100.00;100820.97;4941958;28;20087;-71
2023/07/17 05:02:56;;;;;;;13.57;4.53;;;;;;;15.95;100.00;100848.66;4939953;28;20034;-72
2023/07/17 05:05:22;;;;;;;10.27;4.43;;;;;;;15.87;100.00;100867.63;4942023;28;20027;-71
2023/07/17 05:07:49;;;;;;;10.10;5.88;;;;;;;15.75;100.00;100880.78;4939589;28;20028;-71
2023/07/17 05:10:14;;;;;;;10.23;4.55;;;;;;;15.77;100.00;100907.53;4926370;28;20091;-71
2023/07/17 05:12:40;;;;;;;9.20;4.30;;;;;;;15.78;100.00;100911.84;4923821;28;20508;-72
2023/07/17 05:15:07;;;;;;;9.27;4.70;;;;;;;15.75;100.00;100910.38;4930679;28;20031;-72
2023/07/17 05:17:33;;;;;;;8.90;4.47;;;;;;;15.79;100.00;100927.84;4946456;29;20551;-72
2023/07/17 05:19:59;;;;;;;10.48;5.05;;;;;;;15.68;100.00;100919.41;4940355;28;20043;-74
2023/07/17 05:22:26;;;;;;;10.37;4.30;;;;;;;15.72;100.00;100947.63;4941328;28;20042;-72
2023/07/17 05:24:51;;;;;;;11.00;5.78;;;;;;;15.78;100.00;100954.94;4935615;29;20031;-72
2023/07/17 05:27:17;;;;;;;10.60;4.63;;;;;;;15.94;100.00;100960.06;4941319;28;20030;-72
2023/07/17 05:29:42;;;;;;;7.83;4.40;;;;;;;15.94;100.00;100937.69;4928042;28;20054;-72
2023/07/17 05:32:08;;;;;;;9.57;4.90;;;;;;;15.91;100.00;100927.31;4922223;29;20106;-72
2023/07/17 05:34:33;;;;;;;9.32;5.90;;;;;;;15.90;100.00;100925.66;4946287;28;20035;-72
2023/07/17 05:36:59;;;;;;;7.13;3.73;;;;;;;16.07;100.00;100939.69;4946075;28;20027;-72
2023/07/17 05:39:27;;;;;;;9.25;4.80;;;;;;;15.99;100.00;100919.94;4941748;28;20038;-73
2023/07/17 05:41:52;;;;;;;8.48;4.47;;;;;;;16.03;100.00;100926.59;4939061;29;20122;-72
2023/07/17 05:44:18;;;;;;;10.50;4.32;;;;;;;16.12;100.00;100913.00;4942250;28;20118;-72
2023/07/17 05:46:43;;;;;;;9.47;4.17;;;;;;;16.23;100.00;100917.88;4939318;28;20151;-72
2023/07/17 05:49:09;;;;;;;12.13;5.70;;;;;;;16.20;100.00;100899.38;4940946;28;20062;-73
2023/07/17 05:51:34;;;;;;;8.17;4.30;;;;;;;16.31;100.00;100888.06;4940069;28;20089;-72
2023/07/17 05:53:59;;;;;;;7.57;4.30;;;;;;;16.28;100.00;100858.00;4944724;29;20603;-72
2023/07/17 05:56:25;;;;;;;11.57;5.23;;;;;;;16.13;100.00;100845.47;4946210;28;20068;-73
2023/07/17 05:58:51;;;;;;;8.40;4.10;;;;;;;16.13;100.00;100820.38;4941814;28;20110;-72
2023/07/17 06:01:16;;;;;;;8.70;4.47;;;;;;;16.28;100.00;100812.22;4941489;28;20447;-72
2023/07/17 06:03:42;;;;;;;9.33;4.30;;;;;;;16.34;100.00;100809.56;4941338;28;20063;-74
2023/07/17 06:06:07;;;;;;;6.97;3.83;;;;;;;16.28;100.00;100813.03;4945160;28;20106;-73
2023/07/17 06:08:33;;;;;;;7.82;3.65;;;;;;;16.17;100.00;100803.63;4946369;29;20069;-73
2023/07/17 06:10:58;;;;;;;10.53;4.30;;;;;;;16.11;100.00;100804.44;4941778;28;20138;-72
2023/07/17 06:13:23;;;;;;;11.67;4.00;;;;;;;16.27;100.00;100816.75;4945806;28;20062;-72
2023/07/17 06:15:49;;;;;;;8.43;4.23;;;;;;;17.10;100.00;100832.91;4939283;28;20023;-72
2023/07/17 06:18:14;;;;;;;6.40;3.57;;;;;;;18.33;100.00;100760.44;4959450;28;20039;-72
2023/07/17 06:20:39;;;;;;;5.60;3.43;;;;;;;19.22;100.00;100619.84;4943063;28;20158;-72
2023/07/17 06:23:05;;;;;;;8.87;4.97;;;;;;;19.89;100.00;100506.22;4941691;29;20046;-72
2023/07/17 06:25:35;;;;;;;6.73;3.53;;;;;;;19.81;100.00;100363.00;4940840;28;20022;-73
2023/07/17 06:28:04;;;;;;;6.30;3.55;;;;;;;20.29;100.00;100363.88;4940157;29;20024;-72
2023/07/17 06:30:32;;;;;;;9.95;4.72;;;;;;;20.76;100.00;100154.97;4944847;28;20019;-73
2023/07/17 06:32:58;;;;;;;5.30;3.50;;;;;;;20.27;100.00;100070.53;4946972;28;20485;-73
2023/07/17 06:35:23;;;;;;;5.43;3.20;;;;;;;20.16;100.00;100059.50;4947123;28;20042;-72
2023/07/17 06:37:48;;;;;;;5.07;2.80;;;;;;;20.28;100.00;100032.34;4943772;28;20042;-72
2023/07/17 06:40:14;;;;;;;9.77;3.40;;;;;;;20.60;100.00;100084.19;4946145;28;20556;-72
2023/07/17 06:42:39;;;;;;;5.00;3.60;;;;;;;20.30;100.00;100091.72;4944253;28;20523;-72
2023/07/17 06:45:05;;;;;;;7.07;3.07;;;;;;;20.44;100.00;99962.97;4949224;28;20035;-72
2023/07/17 06:47:31;;;;;;;;;;;;;;;20.42;100.00;99965.09;4945823;28;20031;-73
2023/07/17 06:49:58;;;;;;;4.28;2.60;;;;;;;21.01;100.00;100082.16;4950393;29;19914;-72
2023/07/17 06:52:24;;;;;;;6.32;3.10;;;;;;;21.23;100.00;99967.38;4964686;28;20027;-73
2023/07/17 06:54:49;;;;;;;4.88;2.97;;;;;;;20.59;100.00;99914.41;4948122;28;20500;-72
2023/07/17 06:57:14;;;;;;;5.63;2.23;;;;;;;20.95;100.00;99985.44;4948913;28;20060;-72
2023/07/17 06:59:40;;;;;;;9.70;3.40;;;;;;;21.00;100.00;99922.28;4928921;28;20473;-73
2023/07/17 07:02:05;;;;;;;4.80;2.27;;;;;;;21.06;100.00;99801.91;4943486;28;20031;-73
2023/07/17 07:04:31;;;;;;;6.82;2.88;;;;;;;21.23;99.03;99694.03;4959842;28;20027;-73
2023/07/17 07:06:56;;;;;;;6.13;1.88;;;;;;;21.58;96.73;99706.28;4942755;28;20130;-72
2023/07/17 07:09:21;;;;;;;5.87;2.30;;;;;;;22.26;93.50;99725.47;4946738;28;20391;-72
2023/07/17 07:11:47;;;;;;;5.28;2.72;;;;;;;22.13;89.59;99532.97;4949601;28;20130;-72
2023/07/17 07:14:12;;;;;;;7.20;2.37;;;;;;;22.52;87.08;99524.34;4943928;28;20129;-73
2023/07/17 07:16:38;;;;;;;5.43;2.97;;;;;;;21.36;87.49;99415.09;4942510;28;20039;-73
2023/07/17 07:19:03;;;;;;;8.60;2.33;;;;;;;21.87;87.77;99622.56;4931845;28;20031;-73
2023/07/17 07:21:28;;;;;;;7.83;2.43;;;;;;;22.12;88.51;99754.19;4944976;28;20037;-73
2023/07/17 07:23:54;;;;;;;5.50;2.20;;;;;;;22.25;87.22;99748.31;4947727;29;20065;-72
2023/07/17 07:26:19;;;;;;;4.83;2.37;;;;;;;22.31;87.00;99771.75;4945157;28;20322;-72
2023/07/17 07:28:44;;;;;;;10.73;2.60;;;;;;;22.00;85.25;99639.44;4961661;28;20035;-72
2023/07/17 07:31:10;;;;;;;6.57;3.10;;;;;;;21.25;85.92;99539.06;4928123;29;20066;-71
2023/07/17 07:33:36;;;;;;;8.10;2.60;;;;;;;21.15;84.16;99468.47;4931296;29;20149;-72
2023/07/17 07:36:01;;;;;;;6.57;2.85;;;;;;;20.98;85.22;99564.41;4942528;28;20043;-71
2023/07/17 07:38:27;;;;;;;5.40;2.25;;;;;;;21.02;86.38;99698.47;4944299;28;20083;-72
2023/07/17 07:40:52;;;;;;;7.63;2.60;;;;;;;21.03;86.88;99726.44;4943773;29;20048;-72
2023/07/17 07:43:18;;;;;;;8.33;3.00;;;;;;;20.98;87.05;99740.78;4943925;28;20118;-72
2023/07/17 07:45:43;;;;;;;9.53;2.53;;;;;;;21.11;86.23;99755.81;4925025;29;20302;-72
2023/07/17 07:48:08;;;;;;;7.37;2.27;;;;;;;21.23;86.23;99818.06;4954353;28;20026;-72
2023/07/17 07:50:34;;;;;;;10.13;2.90;;;;;;;21.95;85.54;99927.47;4945633;28;20074;-72
2023/07/17 07:52:59;;;;;;;5.90;2.73;;;;;;;22.40;85.61;99994.22;4942537;29;20067;-72
2023/07/17 07:55:24;;;;;;;7.50;3.23;;;;;;;22.40;84.12;99869.13;4944465;28;20126;-73
2023/07/17 07:57:51;;;;;;;7.50;2.60;;;;;;;22.79;83.21;99912.34;4936286;29;20055;-72
2023/07/17 08:00:16;;;;;;;;;;;;;;;22.75;79.50;99594.53;4931766;28;20038;-71
2023/07/17 08:02:41;;;;;;;6.63;2.53;;;;;;;22.15;80.38;99566.13;4942546;29;19914;-72
2023/07/17 08:05:09;;;;;;;9.10;3.17;;;;;;;21.36;83.94;99692.81;4935933;29;20057;-72
2023/07/17 08:07:34;;;;;;;9.18;2.83;;;;;;;21.35;84.44;99831.50;4941410;29;20353;-72
2023/07/17 08:09:59;;;;;;;7.10;2.77;;;;;;;22.11;83.54;99926.53;4943106;28;20126;-72
2023/07/17 08:12:25;;;;;;;6.77;2.43;;;;;;;22.96;82.87;100062.69;4943730;28;21024;-72
2023/07/17 08:14:51;;;;;;;8.17;2.30;;;;;;;22.88;78.29;99638.66;4944769;28;20918;-71
2023/07/17 08:17:16;;;;;;;6.53;2.13;;;;;;;23.17;77.04;99639.75;4943972;28;20038;-71
2023/07/17 08:19:41;;;;;;;7.57;2.83;;;;;;;23.16;77.41;99713.56;4944176;28;20078;-73
2023/07/17 08:22:07;;;;;;;8.97;2.67;;;;;;;22.70;77.25;99608.13;4942169;28;20131;-72
2023/07/17 08:24:32;;;;;;;5.83;2.00;;;;;;;22.67;76.31;99524.34;4935164;29;20031;-73
2023/07/17 08:26:58;;;;;;;4.80;1.90;;;;;;;21.48;76.44;99240.03;4945305;29;20546;-73
2023/07/17 08:29:23;;;;;;;7.20;2.20;;;;;;;20.82;77.98;99281.38;4959026;28;20026;-71
2023/07/17 08:31:48;;;;;;;4.80;2.30;;;;;;;21.43;79.28;99630.16;4940146;29;20291;-72
2023/07/17 08:34:13;;;;;;;6.03;2.50;;;;;;;22.20;79.74;99837.97;4940633;29;20042;-71
2023/07/17 08:36:39;;;;;;;6.47;2.53;;;;;;;22.79;77.10;99759.97;4921245;29;20127;-71
2023/07/17 08:39:05;;;;;;;7.80;2.33;;;;;;;22.85;73.82;99460.41;4930186;29;20061;-72
2023/07/17 08:41:30;;;;;;;7.57;2.78;;;;;;;23.56;74.79;99760.97;4936034;29;20057;-73
2023/07/17 08:43:58;;;;;;;7.32;2.50;;;;;;;23.58;75.51;99805.91;4938889;29;20062;-71
2023/07/17 08:46:23;;;;;;;5.18;2.03;;;;;;;23.95;75.11;99880.34;4940342;28;20461;-73
2023/07/17 08:48:52;;;;;;;5.57;2.40;;;;;;;23.40;71.63;99419.69;4940033;28;20103;-73
2023/07/17 08:51:21;;;;;;;4.95;2.03;;;;;;;23.72;71.61;99562.88;4952390;28;20054;-73
2023/07/17 08:53:46;;;;;;;6.53;2.10;;;;;;;23.57;69.25;99321.28;4935030;28;20126;-72
2023/07/17 08:56:12;;;;;;;6.82;2.08;;;;;;;22.67;70.04;99219.69;4959945;28;20456;-73
2023/07/17 08:58:40;;;;;;;5.93;2.05;;;;;;;23.39;69.98;99451.56;4943808;28;20027;-72
2023/07/17 09:01:06;;;;;;;6.80;2.28;;;;;;;23.07;69.94;99361.31;4942724;29;20090;-72
2023/07/17 09:03:32;;;;;;;4.75;2.63;;;;;;;23.08;68.05;99177.84;4942176;28;20027;-73
2023/07/17 09:06:01;;;;;;;;;;;;;;;22.62;70.58;99347.56;4942810;29;20039;-73
2023/07/17 09:08:26;;;;;;;9.18;2.35;;;;;;;22.00;67.65;98851.47;4957825;28;19941;-71
2023/07/17 09:11:03;;;;;;;4.63;2.33;;;;;;;22.37;67.44;99029.53;4940990;29;20039;-73
2023/07/17 09:13:39;;;;;;;4.53;2.25;;;;;;;22.47;69.46;99299.44;4942157;28;20778;-72
2023/07/17 09:16:33;;;;;;;6.82;2.40;;;;;;;22.56;69.23;99280.66;4942573;29;20039;-72
2023/07/17 09:19:00;;;;;;;5.50;2.07;;;;;;;21.93;68.86;99040.03;4906204;29;20433;-72
2023/07/17 09:21:26;;;;;;;9.77;2.33;;;;;;;21.57;70.66;99171.63;4925256;29;20508;-71
2023/07/17 09:23:55;;;;;;;5.13;2.50;;;;;;;21.39;72.38;99295.09;4918509;29;20048;-71
2023/07/17 09:26:23;;;;;;;6.28;1.92;;;;;;;22.22;77.72;100003.56;4921572;29;20032;-73
2023/07/17 09:28:51;;;;;;;7.60;2.17;;;;;;;21.71;76.75;99724.06;4921259;29;20224;-73
2023/07/17 09:31:29;;;;;;;8.65;2.13;;;;;;;21.25;76.55;99561.59;4923681;29;20050;-73
2023/07/17 09:33:57;;;;;;;8.85;2.95;;;;;;;21.10;79.99;99822.03;4923835;29;20043;-74
2023/07/17 09:36:23;;;;;;;8.65;2.58;;;;;;;20.84;83.28;99953.84;4925949;29;20043;-72
2023/07/17 09:38:54;;;;;;;8.45;2.55;;;;;;;20.71;83.45;99922.44;4925388;29;20095;-72
2023/07/17 09:41:24;;;;;;;8.57;2.33;;;;;;;21.74;83.43;100158.19;4920978;29;20039;-73
2023/07/17 09:43:59;;;;;;;8.90;2.75;;;;;;;22.41;81.78;100140.00;4920638;29;20168;-72
2023/07/17 09:46:28;;;;;;;12.95;2.88;;;;;;;22.42;79.87;99943.13;4921336;29;20050;-72
2023/07/17 09:48:54;;;;;;;6.95;2.15;;;;;;;23.17;79.72;100146.16;4923233;29;20035;-73
2023/07/17 09:51:20;;;;;;;6.57;2.85;;;;;;;23.20;77.21;99916.09;4921160;29;20036;-72
2023/07/17 09:53:46;;;;;;;7.53;2.70;;;;;;;24.16;75.53;100034.69;4904936;29;20038;-72
2023/07/17 09:56:14;;;;;;;6.80;2.85;;;;;;;23.28;72.13;99460.88;4941233;29;20540;-73
2023/07/17 09:58:44;;;;;;;3.78;1.85;;;;;;;22.84;73.86;99542.31;4941761;28;20031;-72
2023/07/17 10:01:12;;;;;;;4.05;1.75;;;;;;;22.27;73.72;99428.09;4930344;28;20055;-73
2023/07/17 10:03:39;;;;;;;7.15;3.13;;;;;;;23.25;72.99;99676.53;4939488;28;20024;-72
2023/07/17 10:06:04;;;;;;;5.90;2.15;;;;;;;23.71;68.82;99397.75;4942074;29;20039;-73
2023/07/17 10:08:31;;;;;;;4.97;2.13;;;;;;;25.06;68.49;99777.47;4945594;28;20030;-73
2023/07/17 10:10:59;;;;;;;6.60;2.47;;;;;;;24.29;67.84;99545.16;4945815;29;20050;-72
2023/07/17 10:13:25;;;;;;;6.82;2.33;;;;;;;25.61;63.45;99448.63;4944702;28;20030;-73
2023/07/17 10:15:51;;;;;;;7.57;2.10;;;;;;;24.24;63.39;99021.66;4945933;28;20032;-72
2023/07/17 10:18:16;;;;;;;9.07;2.35;;;;;;;22.89;65.90;99000.81;4945194;29;20504;-73
2023/07/17 10:20:52;;;;;;;5.77;2.43;;;;;;;22.74;67.55;99231.09;4947563;28;20031;-73
2023/07/17 10:23:25;;;;;;;6.50;2.40;;;;;;;21.92;70.57;99285.66;4939205;29;20050;-73
2023/07/17 10:25:52;;;;;;;6.30;2.20;;;;;;;21.17;72.00;99265.50;4943815;28;20035;-72
2023/07/17 10:28:34;;;;;;;9.85;2.83;;;;;;;21.19;73.65;99504.84;4944926;28;20472;-73
2023/07/17 10:31:18;;;;;;;8.27;2.15;;;;;;;21.44;72.78;99475.13;4944968;28;20053;-72
2023/07/17 10:33:49;;;;;;;4.97;1.98;;;;;;;22.42;69.22;99276.91;4944374;29;20042;-72
2023/07/17 10:36:16;;;;;;;6.00;2.78;;;;;;;22.17;69.07;99210.59;4944963;28;20126;-72
2023/07/17 10:38:47;;;;;;;;;;;;;;;21.62;71.90;99343.50;4946020;28;20031;-71
2023/07/17 10:41:12;;;;;;;4.38;1.90;;;;;;;22.89;70.27;99610.34;4935984;29;19915;-72
2023/07/17 10:43:49;;;;;;;10.40;2.67;;;;;;;22.74;72.12;99709.09;4948292;28;20034;-73
2023/07/17 10:46:15;;;;;;;5.25;2.20;;;;;;;22.33;70.41;99416.09;4937391;29;20042;-72
2023/07/17 10:48:40;;;;;;;3.80;1.80;;;;;;;22.30;71.05;99486.53;4946014;28;20978;-73
2023/07/17 10:51:06;;;;;;;7.00;2.38;;;;;;;22.34;70.60;99469.41;4960416;28;20527;-72
2023/07/17 10:53:32;;;;;;;6.47;1.80;;;;;;;22.31;71.02;99488.16;4943406;28;20047;-73
2023/07/17 10:55:57;;;;;;;6.90;2.05;;;;;;;22.14;71.00;99470.16;4944108;29;20143;-72
2023/07/17 10:58:23;;;;;;;5.95;1.85;;;;;;;23.10;70.43;99715.44;4945569;28;20050;-75
2023/07/17 11:00:49;;;;;;;8.02;2.25;;;;;;;23.03;69.67;99565.19;4942122;28;20036;-73
2023/07/17 11:03:16;;;;;;;5.57;2.08;;;;;;;23.07;70.14;99647.94;4949589;28;20039;-73
2023/07/17 11:05:43;;;;;;;6.30;1.88;;;;;;;22.59;71.08;99587.44;4947638;28;20035;-72
2023/07/17 11:08:12;;;;;;;6.00;2.13;;;;;;;21.95;72.19;99509.81;4947749;28;20073;-72
2023/07/17 11:10:42;;;;;;;4.35;2.35;;;;;;;22.52;73.45;99815.34;4942803;28;20019;-72
2023/07/17 11:13:08;;;;;;;8.00;2.58;;;;;;;23.82;71.79;100060.78;4944678;29;20035;-72
2023/07/17 11:15:34;;;;;;;7.88;2.28;;;;;;;23.67;67.09;99440.25;4946814;28;20031;-72
2023/07/17 11:18:01;;;;;;;6.85;2.70;;;;;;;22.88;68.13;99336.59;4943682;28;20524;-72